sensor_id;sensor_type;location;lat;lon;timestamp;pressure;altitude;pressure_sealevel;temperature;humidity
56070;BME280;41944;52.078;-0.058;2023-07-16T00:00:35;99934.85;;;18.59;79.11
56070;BME280;41944;52.078;-0.058;2023-07-16T00:03:02;99945.98;;;18.69;78.63
56070;BME280;41944;52.078;-0.058;2023-07-16T00:05:29;99945.18;;;18.75;78.17
56070;BME280;41944;52.078;-0.058;2023-07-16T00:07:56;99954.15;;;18.70;78.85
56070;BME280;41944;52.078;-0.058;2023-07-16T00:10:23;99955.34;;;18.77;78.25
56070;BME280;41944;52.078;-0.058;2023-07-16T00:12:50;99957.24;;;18.61;78.52
56070;BME280;41944;52.078;-0.058;2023-07-16T00:15:17;99962.29;;;18.55;79.05
56070;BME280;41944;52.078;-0.058;2023-07-16T00:17:43;99963.49;;;18.40;78.74
56070;BME280;41944;52.078;-0.058;2023-07-16T00:20:11;99961.83;;;18.35;79.02
56070;BME280;41944;52.078;-0.058;2023-07-16T00:22:38;99962.74;;;18.41;78.47
56070;BME280;41944;52.078;-0.058;2023-07-16T00:25:06;99964.17;;;18.42;78.54
56070;BME280;41944;52.078;-0.058;2023-07-16T00:27:34;99962.62;;;18.43;78.25
56070;BME280;41944;52.078;-0.058;2023-07-16T00:30:01;99966.95;;;18.46;78.06
56070;BME280;41944;52.078;-0.058;2023-07-16T00:32:28;99973.28;;;18.45;78.49
56070;BME280;41944;52.078;-0.058;2023-07-16T00:34:55;99974.76;;;18.37;79.15
56070;BME280;41944;52.078;-0.058;2023-07-16T00:37:21;99973.83;;;18.53;78.74
56070;BME280;41944;52.078;-0.058;2023-07-16T00:39:48;99977.57;;;18.54;78.50
56070;BME280;41944;52.078;-0.058;2023-07-16T00:42:15;99980.84;;;18.57;78.17
56070;BME280;41944;52.078;-0.058;2023-07-16T00:44:42;99982.14;;;18.58;78.22
56070;BME280;41944;52.078;-0.058;2023-07-16T00:47:09;99982.67;;;18.54;78.38
56070;BME280;41944;52.078;-0.058;2023-07-16T00:49:37;99984.84;;;18.60;77.90
56070;BME280;41944;52.078;-0.058;2023-07-16T00:52:09;99985.53;;;18.53;78.00
56070;BME280;41944;52.078;-0.058;2023-07-16T00:54:38;99985.22;;;18.56;77.83
56070;BME280;41944;52.078;-0.058;2023-07-16T00:57:07;99989.04;;;18.57;77.92
56070;BME280;41944;52.078;-0.058;2023-07-16T00:59:35;99987.48;;;18.60;77.60
56070;BME280;41944;52.078;-0.058;2023-07-16T01:02:02;99985.28;;;18.57;77.23
56070;BME280;41944;52.078;-0.058;2023-07-16T01:04:29;99985.09;;;18.61;76.43
56070;BME280;41944;52.078;-0.058;2023-07-16T01:06:58;99982.08;;;18.49;77.18
56070;BME280;41944;52.078;-0.058;2023-07-16T01:09:28;99987.72;;;18.42;77.07
56070;BME280;41944;52.078;-0.058;2023-07-16T01:11:58;99985.62;;;18.36;77.69
56070;BME280;41944;52.078;-0.058;2023-07-16T01:14:27;99993.97;;;18.19;77.97
56070;BME280;41944;52.078;-0.058;2023-07-16T01:16:54;99992.09;;;18.21;77.71
56070;BME280;41944;52.078;-0.058;2023-07-16T01:19:21;99999.56;;;18.11;78.00
56070;BME280;41944;52.078;-0.058;2023-07-16T01:21:55;100004.32;;;18.21;77.46
56070;BME280;41944;52.078;-0.058;2023-07-16T01:24:53;99997.50;;;18.24;76.72
56070;BME280;41944;52.078;-0.058;2023-07-16T01:27:43;100005.11;;;18.10;77.39
56070;BME280;41944;52.078;-0.058;2023-07-16T01:30:18;100010.83;;;18.17;77.02
56070;BME280;41944;52.078;-0.058;2023-07-16T01:32:46;100011.40;;;18.08;77.68
56070;BME280;41944;52.078;-0.058;2023-07-16T01:35:14;100017.98;;;18.04;77.63
56070;BME280;41944;52.078;-0.058;2023-07-16T01:37:42;100026.30;;;18.21;76.29
56070;BME280;41944;52.078;-0.058;2023-07-16T01:40:09;100023.99;;;18.19;76.39
56070;BME280;41944;52.078;-0.058;2023-07-16T01:42:36;100019.82;;;18.15;76.26
56070;BME280;41944;52.078;-0.058;2023-07-16T01:45:04;100037.18;;;17.96;76.91
56070;BME280;41944;52.078;-0.058;2023-07-16T01:47:39;100032.92;;;17.95;77.76
56070;BME280;41944;52.078;-0.058;2023-07-16T01:50:07;100031.93;;;18.14;76.83
56070;BME280;41944;52.078;-0.058;2023-07-16T01:52:35;100031.38;;;18.24;76.27
56070;BME280;41944;52.078;-0.058;2023-07-16T01:55:02;100032.37;;;18.32;74.98
56070;BME280;41944;52.078;-0.058;2023-07-16T01:57:29;100043.66;;;18.21;75.47
56070;BME280;41944;52.078;-0.058;2023-07-16T01:59:55;100047.73;;;18.23;75.05
56070;BME280;41944;52.078;-0.058;2023-07-16T02:02:22;100056.11;;;18.26;75.26
56070;BME280;41944;52.078;-0.058;2023-07-16T02:04:49;100054.19;;;18.28;75.15
56070;BME280;41944;52.078;-0.058;2023-07-16T02:07:16;100061.00;;;18.19;75.57
56070;BME280;41944;52.078;-0.058;2023-07-16T02:09:43;100063.89;;;18.30;75.03
56070;BME280;41944;52.078;-0.058;2023-07-16T02:12:10;100067.30;;;18.23;75.65
56070;BME280;41944;52.078;-0.058;2023-07-16T02:14:37;100064.74;;;18.13;76.28
56070;BME280;41944;52.078;-0.058;2023-07-16T02:17:05;100072.30;;;18.03;76.93
56070;BME280;41944;52.078;-0.058;2023-07-16T02:19:32;100071.32;;;18.14;76.54
56070;BME280;41944;52.078;-0.058;2023-07-16T02:21:59;100068.17;;;18.10;76.35
56070;BME280;41944;52.078;-0.058;2023-07-16T02:24:26;100070.94;;;18.16;76.16
56070;BME280;41944;52.078;-0.058;2023-07-16T02:26:53;100071.35;;;18.15;76.50
56070;BME280;41944;52.078;-0.058;2023-07-16T02:29:19;100064.48;;;18.23;75.98
56070;BME280;41944;52.078;-0.058;2023-07-16T02:31:46;100066.27;;;18.14;76.45
56070;BME280;41944;52.078;-0.058;2023-07-16T02:34:13;100068.55;;;18.15;76.29
56070;BME280;41944;52.078;-0.058;2023-07-16T02:36:40;100058.78;;;18.26;75.89
56070;BME280;41944;52.078;-0.058;2023-07-16T02:39:07;100056.70;;;18.32;75.51
56070;BME280;41944;52.078;-0.058;2023-07-16T02:41:34;100053.77;;;18.13;76.16
56070;BME280;41944;52.078;-0.058;2023-07-16T02:44:04;100054.42;;;18.09;76.45
56070;BME280;41944;52.078;-0.058;2023-07-16T02:46:32;100056.10;;;18.05;76.71
56070;BME280;41944;52.078;-0.058;2023-07-16T02:48:59;100056.57;;;18.04;76.39
56070;BME280;41944;52.078;-0.058;2023-07-16T02:51:26;100062.14;;;18.01;76.94
56070;BME280;41944;52.078;-0.058;2023-07-16T02:53:53;100074.28;;;17.95;76.81
56070;BME280;41944;52.078;-0.058;2023-07-16T02:56:20;100069.20;;;17.96;76.52
56070;BME280;41944;52.078;-0.058;2023-07-16T02:58:46;100075.35;;;17.95;76.92
56070;BME280;41944;52.078;-0.058;2023-07-16T03:01:14;100079.58;;;17.87;77.21
56070;BME280;41944;52.078;-0.058;2023-07-16T03:03:41;100089.42;;;17.77;77.48
56070;BME280;41944;52.078;-0.058;2023-07-16T03:06:08;100096.68;;;17.85;76.82
56070;BME280;41944;52.078;-0.058;2023-07-16T03:08:35;100100.27;;;17.79;77.18
56070;BME280;41944;52.078;-0.058;2023-07-16T03:11:02;100104.08;;;17.75;77.60
56070;BME280;41944;52.078;-0.058;2023-07-16T03:13:29;100106.61;;;17.84;76.60
56070;BME280;41944;52.078;-0.058;2023-07-16T03:15:56;100114.13;;;17.83;77.51
56070;BME280;41944;52.078;-0.058;2023-07-16T03:18:28;100120.86;;;17.82;76.94
56070;BME280;41944;52.078;-0.058;2023-07-16T03:20:55;100124.49;;;17.92;75.96
56070;BME280;41944;52.078;-0.058;2023-07-16T03:23:22;100132.09;;;18.01;74.75
56070;BME280;41944;52.078;-0.058;2023-07-16T03:25:50;100131.31;;;18.00;75.18
56070;BME280;41944;52.078;-0.058;2023-07-16T03:28:16;100138.04;;;17.90;75.15
56070;BME280;41944;52.078;-0.058;2023-07-16T03:30:45;100137.73;;;18.00;74.58
56070;BME280;41944;52.078;-0.058;2023-07-16T03:33:12;100143.53;;;18.04;74.12
56070;BME280;41944;52.078;-0.058;2023-07-16T03:35:39;100151.25;;;18.12;73.22
56070;BME280;41944;52.078;-0.058;2023-07-16T03:38:05;100149.06;;;18.08;73.56
56070;BME280;41944;52.078;-0.058;2023-07-16T03:40:32;100147.29;;;18.03;73.64
56070;BME280;41944;52.078;-0.058;2023-07-16T03:43:00;100154.22;;;17.91;73.83
56070;BME280;41944;52.078;-0.058;2023-07-16T03:45:27;100157.75;;;17.86;73.60
56070;BME280;41944;52.078;-0.058;2023-07-16T03:47:54;100173.94;;;17.76;74.30
56070;BME280;41944;52.078;-0.058;2023-07-16T03:50:21;100178.38;;;17.88;74.11
56070;BME280;41944;52.078;-0.058;2023-07-16T03:52:48;100177.78;;;17.90;73.06
56070;BME280;41944;52.078;-0.058;2023-07-16T03:55:15;100175.31;;;17.81;73.73
56070;BME280;41944;52.078;-0.058;2023-07-16T03:57:42;100176.53;;;17.76;74.24
56070;BME280;41944;52.078;-0.058;2023-07-16T04:00:10;100185.17;;;17.77;73.82
56070;BME280;41944;52.078;-0.058;2023-07-16T04:02:37;100187.80;;;17.73;74.25
56070;BME280;41944;52.078;-0.058;2023-07-16T04:05:06;100196.25;;;17.80;74.04
56070;BME280;41944;52.078;-0.058;2023-07-16T04:07:34;100198.17;;;17.70;74.31
56070;BME280;41944;52.078;-0.058;2023-07-16T04:10:01;100199.49;;;17.83;73.85
56070;BME280;41944;52.078;-0.058;2023-07-16T04:12:29;100203.45;;;17.82;74.55
56070;BME280;41944;52.078;-0.058;2023-07-16T04:14:57;100202.33;;;17.70;74.43
56070;BME280;41944;52.078;-0.058;2023-07-16T04:17:25;100203.16;;;17.84;74.20
56070;BME280;41944;52.078;-0.058;2023-07-16T04:19:52;100205.47;;;17.95;74.12
56070;BME280;41944;52.078;-0.058;2023-07-16T04:22:19;100211.04;;;17.87;73.20
56070;BME280;41944;52.078;-0.058;2023-07-16T04:24:46;100205.25;;;17.98;73.12
56070;BME280;41944;52.078;-0.058;2023-07-16T04:27:13;100201.99;;;17.94;73.33
56070;BME280;41944;52.078;-0.058;2023-07-16T04:29:39;100209.28;;;18.03;73.38
56070;BME280;41944;52.078;-0.058;2023-07-16T04:32:07;100211.37;;;18.01;72.93
56070;BME280;41944;52.078;-0.058;2023-07-16T04:34:35;100205.12;;;17.96;72.94
56070;BME280;41944;52.078;-0.058;2023-07-16T04:37:02;100206.97;;;17.88;72.86
56070;BME280;41944;52.078;-0.058;2023-07-16T04:39:29;100211.87;;;17.96;73.03
56070;BME280;41944;52.078;-0.058;2023-07-16T04:41:55;100212.54;;;17.91;72.95
56070;BME280;41944;52.078;-0.058;2023-07-16T04:44:22;100213.48;;;17.89;73.28
56070;BME280;41944;52.078;-0.058;2023-07-16T04:46:49;100212.40;;;17.88;72.91
56070;BME280;41944;52.078;-0.058;2023-07-16T04:49:16;100219.03;;;17.76;73.20
56070;BME280;41944;52.078;-0.058;2023-07-16T04:51:43;100224.87;;;17.85;72.84
56070;BME280;41944;52.078;-0.058;2023-07-16T04:54:10;100225.41;;;17.88;72.71
56070;BME280;41944;52.078;-0.058;2023-07-16T04:56:37;100228.35;;;17.87;72.43
56070;BME280;41944;52.078;-0.058;2023-07-16T04:59:04;100229.67;;;17.77;72.91
56070;BME280;41944;52.078;-0.058;2023-07-16T05:01:31;100227.37;;;17.75;73.44
56070;BME280;41944;52.078;-0.058;2023-07-16T05:03:58;100224.64;;;17.80;73.01
56070;BME280;41944;52.078;-0.058;2023-07-16T05:06:25;100231.99;;;17.79;73.06
56070;BME280;41944;52.078;-0.058;2023-07-16T05:08:52;100237.19;;;17.70;73.13
56070;BME280;41944;52.078;-0.058;2023-07-16T05:11:19;100240.14;;;17.82;73.05
56070;BME280;41944;52.078;-0.058;2023-07-16T05:13:46;100242.27;;;17.71;73.35
56070;BME280;41944;52.078;-0.058;2023-07-16T05:16:13;100248.82;;;17.79;73.61
56070;BME280;41944;52.078;-0.058;2023-07-16T05:18:40;100255.17;;;17.85;72.93
56070;BME280;41944;52.078;-0.058;2023-07-16T05:21:07;100258.48;;;17.89;73.34
56070;BME280;41944;52.078;-0.058;2023-07-16T05:23:34;100262.25;;;17.94;73.20
56070;BME280;41944;52.078;-0.058;2023-07-16T05:26:01;100271.17;;;18.05;72.56
56070;BME280;41944;52.078;-0.058;2023-07-16T05:28:28;100277.22;;;18.02;72.77
56070;BME280;41944;52.078;-0.058;2023-07-16T05:30:59;100279.36;;;18.07;72.55
56070;BME280;41944;52.078;-0.058;2023-07-16T05:33:26;100283.14;;;18.13;72.44
56070;BME280;41944;52.078;-0.058;2023-07-16T05:35:53;100289.06;;;18.08;72.22
56070;BME280;41944;52.078;-0.058;2023-07-16T05:38:20;100293.01;;;18.05;72.43
56070;BME280;41944;52.078;-0.058;2023-07-16T05:40:47;100298.80;;;18.18;71.88
56070;BME280;41944;52.078;-0.058;2023-07-16T05:43:14;100297.99;;;18.23;72.29
56070;BME280;41944;52.078;-0.058;2023-07-16T05:45:41;100306.28;;;18.39;71.52
56070;BME280;41944;52.078;-0.058;2023-07-16T05:48:07;100311.63;;;18.35;71.60
56070;BME280;41944;52.078;-0.058;2023-07-16T05:50:35;100315.24;;;18.41;70.94
56070;BME280;41944;52.078;-0.058;2023-07-16T05:53:02;100320.25;;;18.40;70.76
56070;BME280;41944;52.078;-0.058;2023-07-16T05:55:29;100319.95;;;18.44;70.85
56070;BME280;41944;52.078;-0.058;2023-07-16T05:57:56;100322.79;;;18.43;70.58
56070;BME280;41944;52.078;-0.058;2023-07-16T06:00:23;100318.21;;;18.42;70.98
56070;BME280;41944;52.078;-0.058;2023-07-16T06:02:49;100326.22;;;18.56;70.62
56070;BME280;41944;52.078;-0.058;2023-07-16T06:05:16;100328.27;;;18.61;70.35
56070;BME280;41944;52.078;-0.058;2023-07-16T06:07:43;100335.49;;;18.62;69.86
56070;BME280;41944;52.078;-0.058;2023-07-16T06:10:10;100326.12;;;18.67;69.46
56070;BME280;41944;52.078;-0.058;2023-07-16T06:12:37;100325.95;;;18.62;69.95
56070;BME280;41944;52.078;-0.058;2023-07-16T06:15:04;100340.85;;;18.57;69.72
56070;BME280;41944;52.078;-0.058;2023-07-16T06:17:32;100339.88;;;18.59;69.46
56070;BME280;41944;52.078;-0.058;2023-07-16T06:19:58;100341.93;;;18.57;70.27
56070;BME280;41944;52.078;-0.058;2023-07-16T06:22:25;100345.17;;;18.66;70.35
56070;BME280;41944;52.078;-0.058;2023-07-16T06:24:52;100348.64;;;18.74;69.23
56070;BME280;41944;52.078;-0.058;2023-07-16T06:27:19;100347.47;;;18.82;69.07
56070;BME280;41944;52.078;-0.058;2023-07-16T06:29:46;100350.19;;;18.95;68.44
56070;BME280;41944;52.078;-0.058;2023-07-16T06:32:13;100353.75;;;19.04;68.10
56070;BME280;41944;52.078;-0.058;2023-07-16T06:34:40;100358.11;;;18.98;68.16
56070;BME280;41944;52.078;-0.058;2023-07-16T06:37:06;100356.61;;;19.03;68.02
56070;BME280;41944;52.078;-0.058;2023-07-16T06:39:34;100357.60;;;19.03;67.30
56070;BME280;41944;52.078;-0.058;2023-07-16T06:42:01;100360.11;;;19.05;67.61
56070;BME280;41944;52.078;-0.058;2023-07-16T06:44:28;100367.18;;;19.12;67.60
56070;BME280;41944;52.078;-0.058;2023-07-16T06:46:55;100365.44;;;19.08;67.74
56070;BME280;41944;52.078;-0.058;2023-07-16T06:49:22;100366.17;;;19.11;67.49
56070;BME280;41944;52.078;-0.058;2023-07-16T06:51:48;100364.40;;;19.19;67.31
56070;BME280;41944;52.078;-0.058;2023-07-16T06:54:16;100367.20;;;19.20;67.47
56070;BME280;41944;52.078;-0.058;2023-07-16T06:56:43;100367.87;;;19.26;66.79
56070;BME280;41944;52.078;-0.058;2023-07-16T06:59:09;100369.44;;;19.34;66.61
56070;BME280;41944;52.078;-0.058;2023-07-16T07:01:37;100368.57;;;19.26;66.56
56070;BME280;41944;52.078;-0.058;2023-07-16T07:04:04;100375.21;;;19.31;66.24
56070;BME280;41944;52.078;-0.058;2023-07-16T07:06:31;100377.69;;;19.28;66.34
56070;BME280;41944;52.078;-0.058;2023-07-16T07:08:58;100389.71;;;19.28;66.50
56070;BME280;41944;52.078;-0.058;2023-07-16T07:11:24;100387.87;;;19.25;66.87
56070;BME280;41944;52.078;-0.058;2023-07-16T07:13:52;100396.78;;;19.25;66.53
56070;BME280;41944;52.078;-0.058;2023-07-16T07:16:19;100399.92;;;19.16;67.22
56070;BME280;41944;52.078;-0.058;2023-07-16T07:18:46;100404.22;;;19.15;67.57
56070;BME280;41944;52.078;-0.058;2023-07-16T07:21:13;100417.45;;;19.24;66.83
56070;BME280;41944;52.078;-0.058;2023-07-16T07:23:40;100417.35;;;19.38;65.96
56070;BME280;41944;52.078;-0.058;2023-07-16T07:26:07;100426.50;;;19.44;66.01
56070;BME280;41944;52.078;-0.058;2023-07-16T07:28:34;100430.38;;;19.53;65.88
56070;BME280;41944;52.078;-0.058;2023-07-16T07:31:01;100435.06;;;19.67;65.21
56070;BME280;41944;52.078;-0.058;2023-07-16T07:33:29;100439.39;;;19.87;64.81
56070;BME280;41944;52.078;-0.058;2023-07-16T07:35:56;100453.64;;;19.99;64.94
56070;BME280;41944;52.078;-0.058;2023-07-16T07:38:23;100456.70;;;20.03;63.51
56070;BME280;41944;52.078;-0.058;2023-07-16T07:40:49;100459.88;;;20.13;63.82
56070;BME280;41944;52.078;-0.058;2023-07-16T07:43:16;100463.60;;;20.06;63.47
56070;BME280;41944;52.078;-0.058;2023-07-16T07:45:43;100471.02;;;20.04;63.91
56070;BME280;41944;52.078;-0.058;2023-07-16T07:48:11;100472.83;;;20.19;63.33
56070;BME280;41944;52.078;-0.058;2023-07-16T07:50:38;100476.58;;;20.23;62.77
56070;BME280;41944;52.078;-0.058;2023-07-16T07:53:05;100479.31;;;20.31;63.52
56070;BME280;41944;52.078;-0.058;2023-07-16T07:55:33;100486.85;;;20.31;62.80
56070;BME280;41944;52.078;-0.058;2023-07-16T07:58:01;100485.96;;;20.20;63.64
56070;BME280;41944;52.078;-0.058;2023-07-16T08:00:28;100478.93;;;20.22;63.33
56070;BME280;41944;52.078;-0.058;2023-07-16T08:02:54;100487.59;;;20.24;63.12
56070;BME280;41944;52.078;-0.058;2023-07-16T08:05:21;100488.68;;;20.21;63.05
56070;BME280;41944;52.078;-0.058;2023-07-16T08:07:49;100487.18;;;20.27;62.71
56070;BME280;41944;52.078;-0.058;2023-07-16T08:10:16;100493.80;;;20.28;62.76
56070;BME280;41944;52.078;-0.058;2023-07-16T08:12:43;100489.62;;;20.31;62.76
56070;BME280;41944;52.078;-0.058;2023-07-16T08:15:10;100500.35;;;20.29;62.80
56070;BME280;41944;52.078;-0.058;2023-07-16T08:17:37;100497.66;;;20.32;62.80
56070;BME280;41944;52.078;-0.058;2023-07-16T08:20:06;100497.45;;;20.31;62.67
56070;BME280;41944;52.078;-0.058;2023-07-16T08:22:34;100499.32;;;20.36;62.63
56070;BME280;41944;52.078;-0.058;2023-07-16T08:25:01;100499.90;;;20.44;62.81
56070;BME280;41944;52.078;-0.058;2023-07-16T08:27:29;100493.49;;;20.45;62.50
56070;BME280;41944;52.078;-0.058;2023-07-16T08:29:56;100496.12;;;20.40;62.53
56070;BME280;41944;52.078;-0.058;2023-07-16T08:32:23;100498.72;;;20.41;63.03
56070;BME280;41944;52.078;-0.058;2023-07-16T08:34:51;100498.88;;;20.51;62.60
56070;BME280;41944;52.078;-0.058;2023-07-16T08:37:18;100499.54;;;20.54;63.06
56070;BME280;41944;52.078;-0.058;2023-07-16T08:39:45;100503.69;;;20.69;62.86
56070;BME280;41944;52.078;-0.058;2023-07-16T08:42:11;100502.85;;;20.75;61.28
56070;BME280;41944;52.078;-0.058;2023-07-16T08:44:39;100505.38;;;20.77;61.47
56070;BME280;41944;52.078;-0.058;2023-07-16T08:47:07;100501.96;;;20.91;61.00
56070;BME280;41944;52.078;-0.058;2023-07-16T08:49:34;100509.49;;;21.02;60.97
56070;BME280;41944;52.078;-0.058;2023-07-16T08:52:02;100516.53;;;21.06;60.63
56070;BME280;41944;52.078;-0.058;2023-07-16T08:54:29;100512.85;;;21.17;60.74
56070;BME280;41944;52.078;-0.058;2023-07-16T08:56:57;100522.00;;;21.28;59.79
56070;BME280;41944;52.078;-0.058;2023-07-16T08:59:26;100523.00;;;21.29;59.43
56070;BME280;41944;52.078;-0.058;2023-07-16T09:01:53;100524.72;;;21.31;59.68
56070;BME280;41944;52.078;-0.058;2023-07-16T09:04:21;100525.70;;;21.34;59.17
56070;BME280;41944;52.078;-0.058;2023-07-16T09:06:47;100522.70;;;21.31;59.41
56070;BME280;41944;52.078;-0.058;2023-07-16T09:09:21;100520.81;;;21.44;59.19
56070;BME280;41944;52.078;-0.058;2023-07-16T09:11:49;100527.54;;;21.42;59.28
56070;BME280;41944;52.078;-0.058;2023-07-16T09:14:17;100533.50;;;21.56;59.08
56070;BME280;41944;52.078;-0.058;2023-07-16T09:16:48;100537.61;;;21.42;57.96
56070;BME280;41944;52.078;-0.058;2023-07-16T09:19:15;100531.58;;;21.47;58.76
56070;BME280;41944;52.078;-0.058;2023-07-16T09:21:41;100538.21;;;21.65;57.91
56070;BME280;41944;52.078;-0.058;2023-07-16T09:24:09;100549.44;;;21.89;56.96
56070;BME280;41944;52.078;-0.058;2023-07-16T09:26:37;100558.93;;;22.04;56.38
56070;BME280;41944;52.078;-0.058;2023-07-16T09:29:05;100563.60;;;22.03;56.41
56070;BME280;41944;52.078;-0.058;2023-07-16T09:31:32;100559.86;;;22.00;56.26
56070;BME280;41944;52.078;-0.058;2023-07-16T09:33:59;100566.26;;;22.01;56.37
56070;BME280;41944;52.078;-0.058;2023-07-16T09:36:26;100572.05;;;22.10;56.08
56070;BME280;41944;52.078;-0.058;2023-07-16T09:38:54;100576.97;;;22.06;56.56
56070;BME280;41944;52.078;-0.058;2023-07-16T09:41:22;100580.01;;;21.70;56.98
56070;BME280;41944;52.078;-0.058;2023-07-16T09:43:48;100577.09;;;21.73;57.63
56070;BME280;41944;52.078;-0.058;2023-07-16T09:46:15;100577.84;;;21.73;58.18
56070;BME280;41944;52.078;-0.058;2023-07-16T09:48:42;100579.76;;;21.81;57.98
56070;BME280;41944;52.078;-0.058;2023-07-16T09:51:11;100585.08;;;21.74;57.08
56070;BME280;41944;52.078;-0.058;2023-07-16T09:53:39;100582.95;;;21.67;57.27
56070;BME280;41944;52.078;-0.058;2023-07-16T09:56:08;100590.83;;;21.72;56.97
56070;BME280;41944;52.078;-0.058;2023-07-16T09:58:37;100591.84;;;21.74;57.13
56070;BME280;41944;52.078;-0.058;2023-07-16T10:01:05;100588.71;;;21.70;57.03
56070;BME280;41944;52.078;-0.058;2023-07-16T10:03:32;100589.46;;;21.57;57.61
56070;BME280;41944;52.078;-0.058;2023-07-16T10:06:06;100595.56;;;21.42;57.67
56070;BME280;41944;52.078;-0.058;2023-07-16T10:08:34;100593.22;;;21.21;58.55
56070;BME280;41944;52.078;-0.058;2023-07-16T10:11:01;100592.66;;;21.43;57.72
56070;BME280;41944;52.078;-0.058;2023-07-16T10:13:28;100593.82;;;21.62;56.73
56070;BME280;41944;52.078;-0.058;2023-07-16T10:15:56;100598.81;;;21.82;56.18
56070;BME280;41944;52.078;-0.058;2023-07-16T10:18:25;100594.49;;;22.03;55.13
56070;BME280;41944;52.078;-0.058;2023-07-16T10:20:53;100595.72;;;22.30;55.07
56070;BME280;41944;52.078;-0.058;2023-07-16T10:23:20;100598.34;;;22.43;54.58
56070;BME280;41944;52.078;-0.058;2023-07-16T10:26:05;100592.05;;;22.53;54.45
56070;BME280;41944;52.078;-0.058;2023-07-16T10:28:32;100598.52;;;22.61;53.98
56070;BME280;41944;52.078;-0.058;2023-07-16T10:30:59;100598.58;;;22.74;53.55
56070;BME280;41944;52.078;-0.058;2023-07-16T10:33:26;100603.02;;;22.78;51.85
56070;BME280;41944;52.078;-0.058;2023-07-16T10:35:52;100605.41;;;23.00;52.14
56070;BME280;41944;52.078;-0.058;2023-07-16T10:38:19;100611.18;;;23.32;51.26
56070;BME280;41944;52.078;-0.058;2023-07-16T10:40:46;100614.65;;;23.43;49.70
56070;BME280;41944;52.078;-0.058;2023-07-16T10:43:13;100611.79;;;23.48;50.39
56070;BME280;41944;52.078;-0.058;2023-07-16T10:45:41;100626.45;;;23.48;51.10
56070;BME280;41944;52.078;-0.058;2023-07-16T10:48:07;100616.96;;;23.48;49.52
56070;BME280;41944;52.078;-0.058;2023-07-16T10:50:35;100620.54;;;23.43;49.72
56070;BME280;41944;52.078;-0.058;2023-07-16T10:53:02;100618.08;;;23.34;50.13
56070;BME280;41944;52.078;-0.058;2023-07-16T10:55:30;100610.34;;;23.21;50.15
56070;BME280;41944;52.078;-0.058;2023-07-16T10:57:57;100612.80;;;23.29;51.03
56070;BME280;41944;52.078;-0.058;2023-07-16T11:00:24;100613.67;;;23.35;49.72
56070;BME280;41944;52.078;-0.058;2023-07-16T11:02:51;100609.56;;;23.36;49.53
56070;BME280;41944;52.078;-0.058;2023-07-16T11:05:19;100613.06;;;23.48;48.69
56070;BME280;41944;52.078;-0.058;2023-07-16T11:07:47;100605.38;;;23.54;49.17
56070;BME280;41944;52.078;-0.058;2023-07-16T11:10:15;100609.94;;;23.53;49.04
56070;BME280;41944;52.078;-0.058;2023-07-16T11:12:43;100603.47;;;23.68;48.19
56070;BME280;41944;52.078;-0.058;2023-07-16T11:15:11;100610.07;;;23.75;47.92
56070;BME280;41944;52.078;-0.058;2023-07-16T11:17:38;100606.07;;;23.78;47.54
56070;BME280;41944;52.078;-0.058;2023-07-16T11:20:08;100606.41;;;23.82;46.91
56070;BME280;41944;52.078;-0.058;2023-07-16T11:22:38;100605.37;;;23.85;47.21
56070;BME280;41944;52.078;-0.058;2023-07-16T11:25:11;100605.35;;;23.92;47.12
56070;BME280;41944;52.078;-0.058;2023-07-16T11:27:41;100612.24;;;23.98;46.53
56070;BME280;41944;52.078;-0.058;2023-07-16T11:30:09;100614.91;;;24.08;46.34
56070;BME280;41944;52.078;-0.058;2023-07-16T11:32:37;100618.52;;;24.22;45.86
56070;BME280;41944;52.078;-0.058;2023-07-16T11:35:06;100618.66;;;24.31;45.76
56070;BME280;41944;52.078;-0.058;2023-07-16T11:37:34;100625.77;;;24.16;45.17
56070;BME280;41944;52.078;-0.058;2023-07-16T11:40:03;100621.85;;;24.17;45.32
56070;BME280;41944;52.078;-0.058;2023-07-16T11:42:31;100625.45;;;24.21;45.43
56070;BME280;41944;52.078;-0.058;2023-07-16T11:44:59;100624.24;;;24.17;45.65
56070;BME280;41944;52.078;-0.058;2023-07-16T11:47:27;100627.66;;;24.15;46.95
56070;BME280;41944;52.078;-0.058;2023-07-16T11:49:54;100629.47;;;24.26;45.80
56070;BME280;41944;52.078;-0.058;2023-07-16T11:52:23;100632.72;;;24.25;45.85
56070;BME280;41944;52.078;-0.058;2023-07-16T11:54:51;100629.63;;;24.21;46.01
56070;BME280;41944;52.078;-0.058;2023-07-16T11:57:18;100632.34;;;24.18;45.76
56070;BME280;41944;52.078;-0.058;2023-07-16T11:59:45;100640.61;;;24.17;46.27
56070;BME280;41944;52.078;-0.058;2023-07-16T12:02:13;100639.78;;;24.20;45.85
56070;BME280;41944;52.078;-0.058;2023-07-16T12:04:40;100640.74;;;24.18;46.60
56070;BME280;41944;52.078;-0.058;2023-07-16T12:07:07;100634.92;;;24.28;46.03
56070;BME280;41944;52.078;-0.058;2023-07-16T12:09:35;100631.07;;;24.38;45.36
56070;BME280;41944;52.078;-0.058;2023-07-16T12:12:03;100648.74;;;24.38;45.19
56070;BME280;41944;52.078;-0.058;2023-07-16T12:14:30;100644.01;;;24.33;45.38
56070;BME280;41944;52.078;-0.058;2023-07-16T12:16:57;100640.13;;;24.27;44.15
56070;BME280;41944;52.078;-0.058;2023-07-16T12:19:24;100635.14;;;24.45;44.97
56070;BME280;41944;52.078;-0.058;2023-07-16T12:21:52;100634.87;;;24.62;45.16
56070;BME280;41944;52.078;-0.058;2023-07-16T12:24:18;100638.87;;;24.74;45.53
56070;BME280;41944;52.078;-0.058;2023-07-16T12:26:45;100640.83;;;24.91;44.34
56070;BME280;41944;52.078;-0.058;2023-07-16T12:29:12;100638.07;;;24.99;44.00
56070;BME280;41944;52.078;-0.058;2023-07-16T12:31:39;100640.33;;;25.05;43.29
56070;BME280;41944;52.078;-0.058;2023-07-16T12:34:07;100636.61;;;25.01;43.17
56070;BME280;41944;52.078;-0.058;2023-07-16T12:36:34;100646.10;;;24.85;42.46
56070;BME280;41944;52.078;-0.058;2023-07-16T12:39:01;100642.21;;;24.73;42.95
56070;BME280;41944;52.078;-0.058;2023-07-16T12:41:28;100643.51;;;24.80;44.08